Time;durP1;ratioP1;P1;durP2;ratioP2;P2;SDS_P1;SDS_P2;PMS_P1;PMS_P2;Temp;Humidity;BMP_temperature;BMP_pressure;BME280_temperature;BME280_humidity;BME280_pressure;Samples;Min_cycle;Max_cycle;Signal;HPM_P1;HPM_P2
2022/07/08 03:00:23;;;;;;;1.13;0.80;;;26.10;42.10;;;;;;5892677;23;45288;-60
2022/07/08 03:02:49;;;;;;;0.90;0.70;;;26.00;42.10;;;;;;4891997;28;45077;-61
2022/07/08 03:05:15;;;;;;;0.77;0.50;;;26.10;42.10;;;;;;4913610;28;45276;-59
2022/07/08 03:07:40;;;;;;;1.35;0.57;;;26.00;42.00;;;;;;4891593;28;46952;-60
2022/07/08 03:10:06;;;;;;;1.77;0.70;;;26.00;42.00;;;;;;4927278;28;45027;-61
2022/07/08 03:12:34;;;;;;;1.27;0.75;;;26.10;42.10;;;;;;4909772;28;45525;-62
2022/07/08 03:15:00;;;;;;;1.40;0.70;;;26.00;42.00;;;;;;4906905;28;45705;-63
2022/07/08 03:17:26;;;;;;;0.70;0.60;;;26.00;42.00;;;;;;4890263;28;45332;-61
2022/07/08 03:19:51;;;;;;;1.58;0.77;;;26.00;42.00;;;;;;4910166;28;45531;-60
2022/07/08 03:22:17;;;;;;;1.88;0.55;;;26.00;42.00;;;;;;4909825;28;45500;-60
2022/07/08 03:24:43;;;;;;;0.95;0.75;;;26.00;42.00;;;;;;4908131;28;45713;-63
2022/07/08 03:27:08;;;;;;;0.98;0.50;;;26.00;42.00;;;;;;4908633;28;45043;-62
2022/07/08 03:29:34;;;;;;;0.50;0.50;;;26.00;42.00;;;;;;4910336;28;44976;-61
2022/07/08 03:32:00;;;;;;;1.90;0.70;;;26.00;42.00;;;;;;4908224;28;45331;-60
2022/07/08 03:34:25;;;;;;;2.25;0.63;;;26.00;42.00;;;;;;4909463;28;45622;-60
2022/07/08 03:36:51;;;;;;;1.23;0.70;;;26.00;42.00;;;;;;4908472;28;46001;-63
2022/07/08 03:39:16;;;;;;;0.82;0.60;;;26.00;42.00;;;;;;4909508;28;45505;-62
2022/07/08 03:41:42;;;;;;;0.60;0.40;;;26.00;42.00;;;;;;4894966;28;45534;-61
2022/07/08 03:44:08;;;;;;;0.98;0.60;;;26.00;42.10;;;;;;4905954;28;45188;-61
2022/07/08 03:46:34;;;;;;;2.22;0.90;;;26.00;42.10;;;;;;4909198;28;46046;-61
2022/07/08 03:48:59;;;;;;;1.10;0.60;;;26.00;42.10;;;;;;4911246;28;45268;-61
2022/07/08 03:51:25;;;;;;;0.73;0.63;;;26.00;42.00;;;;;;4912281;28;45523;-61
2022/07/08 03:53:50;;;;;;;0.60;0.50;;;26.00;42.70;;;;;;4910155;28;45521;-61
2022/07/08 03:56:16;;;;;;;0.63;0.50;;;26.00;42.00;;;;;;4910250;28;46641;-61
2022/07/08 03:58:41;;;;;;;0.60;0.50;;;26.00;42.00;;;;;;4892862;28;45367;-61
2022/07/08 04:01:07;;;;;;;0.85;0.60;;;26.00;42.00;;;;;;4901331;28;45905;-63
2022/07/08 04:03:33;;;;;;;0.90;0.65;;;26.00;42.00;;;;;;4908073;28;45671;-61
2022/07/08 04:05:58;;;;;;;1.63;0.60;;;26.00;42.00;;;;;;4907126;28;46101;-60
2022/07/08 04:08:24;;;;;;;1.75;0.50;;;26.00;42.00;;;;;;4910127;28;45551;-62
2022/07/08 04:10:50;;;;;;;1.85;0.50;;;26.00;42.10;;;;;;4907280;28;45118;-60
2022/07/08 04:13:15;;;;;;;1.88;0.70;;;25.90;42.00;;;;;;4908783;28;44994;-60
2022/07/08 04:15:41;;;;;;;0.73;0.70;;;26.00;42.10;;;;;;4907696;28;46190;-62
2022/07/08 04:18:06;;;;;;;0.68;0.60;;;25.90;42.00;;;;;;4908343;28;45034;-61
2022/07/08 04:20:32;;;;;;;1.20;0.70;;;25.90;42.10;;;;;;4906677;28;45642;-60
2022/07/08 04:22:58;;;;;;;0.70;0.68;;;25.90;42.10;;;;;;4904885;28;45763;-62
2022/07/08 04:25:23;;;;;;;1.13;0.60;;;25.90;42.00;;;;;;4907099;28;45368;-60
2022/07/08 04:27:49;;;;;;;0.60;0.50;;;25.90;42.10;;;;;;4908919;28;45291;-61
2022/07/08 04:30:14;;;;;;;0.85;0.50;;;25.90;42.00;;;;;;4906395;28;44773;-61
2022/07/08 04:32:40;;;;;;;1.80;0.70;;;25.90;42.10;;;;;;4906248;28;45032;-63
2022/07/08 04:35:06;;;;;;;0.95;0.60;;;25.90;42.00;;;;;;4887384;28;45759;-60
2022/07/08 04:37:31;;;;;;;0.93;0.63;;;26.00;42.10;;;;;;4903486;28;45749;-62
2022/07/08 04:39:57;;;;;;;0.82;0.50;;;25.90;42.00;;;;;;4908362;28;45497;-61
2022/07/08 04:42:22;;;;;;;2.47;0.60;;;25.90;42.00;;;;;;4892033;28;45815;-63
2022/07/08 04:44:48;;;;;;;1.33;0.70;;;26.00;42.00;;;;;;4909488;28;46025;-61
2022/07/08 04:47:14;;;;;;;1.00;0.70;;;25.90;41.90;;;;;;4907024;28;45622;-60
2022/07/08 04:49:39;;;;;;;0.65;0.50;;;25.90;42.00;;;;;;4906502;28;45511;-62
2022/07/08 04:52:06;;;;;;;1.00;0.60;;;25.90;42.00;;;;;;4908034;28;45259;-61
2022/07/08 04:54:37;;;;;;;0.70;0.57;;;25.90;42.00;;;;;;4907155;28;45387;-61
2022/07/08 04:57:06;;;;;;;0.40;0.40;;;25.90;42.00;;;;;;4907120;28;46186;-62
2022/07/08 04:59:32;;;;;;;0.80;0.60;;;25.90;42.10;;;;;;4909080;28;45558;-59
2022/07/08 05:01:58;;;;;;;0.70;0.50;;;25.90;42.20;;;;;;4887332;28;45133;-61
2022/07/08 05:04:23;;;;;;;0.82;0.52;;;25.80;42.10;;;;;;4905698;28;46155;-61
2022/07/08 05:06:49;;;;;;;1.17;0.77;;;25.90;42.10;;;;;;4889197;28;45447;-61
2022/07/08 05:09:14;;;;;;;1.75;0.60;;;25.90;42.00;;;;;;4905385;28;45327;-60
2022/07/08 05:11:40;;;;;;;1.65;0.57;;;25.90;42.00;;;;;;4889089;28;44994;-61
2022/07/08 05:14:05;;;;;;;0.63;0.60;;;25.90;42.00;;;;;;4908202;28;45950;-60
2022/07/08 05:16:31;;;;;;;0.75;0.60;;;25.90;42.00;;;;;;4905506;28;45767;-61
2022/07/08 05:18:57;;;;;;;0.80;0.70;;;25.90;42.00;;;;;;4909074;28;45183;-59
2022/07/08 05:21:22;;;;;;;0.73;0.60;;;25.90;42.00;;;;;;4907789;28;45398;-62
2022/07/08 05:23:48;;;;;;;1.17;0.63;;;25.90;42.00;;;;;;4906560;28;45336;-60
2022/07/08 05:26:14;;;;;;;1.23;0.60;;;25.90;41.90;;;;;;4907032;28;45276;-59
2022/07/08 05:28:39;;;;;;;0.73;0.63;;;25.90;41.90;;;;;;4916234;28;44771;-61
2022/07/08 05:31:05;;;;;;;0.75;0.50;;;25.90;41.90;;;;;;4895444;28;45338;-58
2022/07/08 05:33:30;;;;;;;0.77;0.52;;;25.90;41.90;;;;;;4900155;28;46121;-59
2022/07/08 05:35:56;;;;;;;0.75;0.63;;;25.90;41.90;;;;;;4910380;28;44851;-60
2022/07/08 05:38:21;;;;;;;1.27;0.70;;;25.90;41.90;;;;;;4908701;28;45447;-60
2022/07/08 05:40:47;;;;;;;0.73;0.50;;;25.90;41.90;;;;;;4910654;28;45178;-59
2022/07/08 05:43:12;;;;;;;0.60;0.40;;;25.90;41.90;;;;;;4915402;28;46109;-60
2022/07/08 05:45:38;;;;;;;0.98;0.65;;;25.90;41.90;;;;;;4911930;28;45047;-60
2022/07/08 05:48:04;;;;;;;1.15;0.55;;;25.90;41.90;;;;;;4910933;28;45615;-59
2022/07/08 05:50:29;;;;;;;1.08;0.55;;;25.90;41.90;;;;;;4917238;28;44645;-60
2022/07/08 05:52:55;;;;;;;0.68;0.60;;;25.90;41.90;;;;;;4915422;28;46101;-60
2022/07/08 05:55:21;;;;;;;1.25;0.63;;;25.90;41.90;;;;;;4913022;28;44723;-59
2022/07/08 05:57:46;;;;;;;0.60;0.50;;;25.90;41.90;;;;;;4908420;28;44691;-59
2022/07/08 06:00:12;;;;;;;1.23;0.70;;;25.90;41.80;;;;;;4913220;28;45252;-61
2022/07/08 06:02:38;;;;;;;0.88;0.60;;;25.90;41.80;;;;;;4914600;28;46181;-63
2022/07/08 06:05:03;;;;;;;0.90;0.60;;;25.90;41.80;;;;;;4913222;28;45521;-61
2022/07/08 06:07:29;;;;;;;1.42;0.80;;;25.90;41.80;;;;;;4915047;28;45219;-63
2022/07/08 06:09:55;;;;;;;0.40;0.40;;;25.90;41.70;;;;;;4915874;28;45232;-56
2022/07/08 06:12:20;;;;;;;0.57;0.40;;;25.90;41.80;;;;;;4906385;28;46980;-60
2022/07/08 06:14:46;;;;;;;0.60;0.50;;;25.90;41.70;;;;;;4916872;28;45608;-63
2022/07/08 06:17:11;;;;;;;1.75;0.63;;;25.90;41.70;;;;;;4907036;28;45273;-61
2022/07/08 06:19:37;;;;;;;0.43;0.43;;;25.90;41.70;;;;;;4919397;28;44682;-59
2022/07/08 06:22:03;;;;;;;1.60;0.50;;;26.00;41.70;;;;;;4916054;28;46576;-59
2022/07/08 06:24:28;;;;;;;2.20;0.60;;;26.00;42.20;;;;;;4915876;28;45496;-61
2022/07/08 06:26:54;;;;;;;1.02;0.70;;;26.10;41.60;;;;;;4922457;28;45512;-59
2022/07/08 06:29:20;;;;;;;1.65;0.80;;;26.00;41.60;;;;;;4919517;28;45211;-60
2022/07/08 06:31:45;;;;;;;0.65;0.50;;;26.10;41.60;;;;;;4908160;28;45390;-60
2022/07/08 06:34:11;;;;;;;0.93;0.60;;;26.10;41.50;;;;;;4916277;28;45499;-63
2022/07/08 06:36:36;;;;;;;1.33;0.63;;;26.10;41.50;;;;;;4916718;28;45034;-60
2022/07/08 06:39:02;;;;;;;1.65;0.60;;;26.10;41.40;;;;;;4917427;28;45271;-59
2022/07/08 06:41:27;;;;;;;1.85;0.63;;;26.10;41.50;;;;;;4912285;28;45125;-58
2022/07/08 06:43:53;;;;;;;0.57;0.57;;;26.10;41.40;;;;;;4919098;28;45616;-57
2022/07/08 06:46:18;;;;;;;1.13;0.60;;;26.10;41.40;;;;;;4916572;28;45084;-61
2022/07/08 06:48:44;;;;;;;1.17;0.57;;;26.10;41.40;;;;;;4917456;28;45601;-58
2022/07/08 06:51:12;;;;;;;1.42;0.70;;;26.10;41.50;;;;;;4914692;28;45966;-62
2022/07/08 06:56:22;;;;;;;1.77;0.80;;;26.20;41.40;;;;;;4912978;28;45055;-62
2022/07/08 06:58:48;;;;;;;1.33;0.80;;;26.10;41.40;;;;;;4902615;28;45570;-62
2022/07/08 07:01:13;;;;;;;2.50;0.60;;;26.20;41.40;;;;;;4910557;28;45833;-60
2022/07/08 07:03:39;;;;;;;5.25;0.80;;;26.20;41.50;;;;;;4910594;28;45618;-59
2022/07/08 07:06:05;;;;;;;3.13;0.85;;;26.20;41.50;;;;;;4915950;28;45347;-61
2022/07/08 07:08:30;;;;;;;3.13;0.80;;;26.20;41.40;;;;;;4907756;28;45417;-62
2022/07/08 07:10:56;;;;;;;2.25;0.60;;;26.20;41.50;;;;;;4909803;28;46078;-59
2022/07/08 07:13:21;;;;;;;2.38;0.57;;;26.20;41.40;;;;;;4910881;28;45007;-61
2022/07/08 07:15:47;;;;;;;2.72;0.70;;;26.20;41.40;;;;;;4918450;28;46376;-61
2022/07/08 07:18:13;;;;;;;1.20;0.70;;;26.20;41.40;;;;;;4915133;28;45641;-60
2022/07/08 07:20:38;;;;;;;1.63;0.55;;;26.20;41.40;;;;;;4900327;28;46225;-67
2022/07/08 07:23:04;;;;;;;1.38;0.50;;;26.20;41.40;;;;;;4913448;28;45451;-59
2022/07/08 07:25:29;;;;;;;1.55;0.60;;;26.20;41.40;;;;;;4907599;28;45503;-62
2022/07/08 07:27:55;;;;;;;1.45;0.52;;;26.20;41.40;;;;;;4914906;28;45371;-59
2022/07/08 07:30:22;;;;;;;1.48;0.55;;;26.30;41.40;;;;;;4916486;28;45979;-60
2022/07/08 07:32:47;;;;;;;2.00;0.55;;;26.30;41.40;;;;;;4903910;28;45372;-59
2022/07/08 07:35:13;;;;;;;1.00;0.50;;;26.30;41.40;;;;;;4911021;28;45306;-60
2022/07/08 07:37:38;;;;;;;1.48;0.55;;;26.30;41.30;;;;;;4915512;28;45292;-63
2022/07/08 07:40:05;;;;;;;1.55;0.40;;;26.30;41.40;;;;;;4913188;28;45177;-62
2022/07/08 07:42:30;;;;;;;0.98;0.50;;;26.30;41.50;;;;;;4897541;28;45665;-67
2022/07/08 07:44:56;;;;;;;1.73;0.73;;;26.30;41.50;;;;;;4900845;28;45339;-65
2022/07/08 07:47:21;;;;;;;1.52;0.47;;;26.20;41.50;;;;;;4884022;28;45270;-60
2022/07/08 07:49:47;;;;;;;1.23;0.65;;;26.30;41.50;;;;;;4912837;28;45936;-62
2022/07/08 07:52:13;;;;;;;2.22;0.70;;;26.30;41.50;;;;;;4891462;28;44970;-61
2022/07/08 07:54:38;;;;;;;0.65;0.40;;;26.30;41.50;;;;;;4913909;28;45409;-68
2022/07/08 07:57:04;;;;;;;2.55;0.90;;;26.30;41.40;;;;;;4911770;28;45278;-59
2022/07/08 07:59:29;;;;;;;1.42;0.60;;;26.30;41.30;;;;;;4917137;28;45608;-59
2022/07/08 08:01:55;;;;;;;1.60;0.63;;;26.40;41.40;;;;;;4910225;28;45043;-62
2022/07/08 08:04:20;;;;;;;1.40;0.50;;;26.40;41.40;;;;;;4914913;28;45201;-58
2022/07/08 08:06:46;;;;;;;0.90;0.68;;;26.40;41.40;;;;;;4916869;28;45556;-59
2022/07/08 08:09:12;;;;;;;2.15;0.70;;;26.40;41.20;;;;;;4909228;28;46200;-64
2022/07/08 08:11:37;;;;;;;1.40;0.63;;;26.40;41.30;;;;;;4913712;28;45583;-61
2022/07/08 08:14:03;;;;;;;0.68;0.50;;;26.40;41.30;;;;;;4916234;28;45189;-70
2022/07/08 08:16:28;;;;;;;3.63;0.70;;;26.40;41.30;;;;;;4913819;28;45205;-59
2022/07/08 08:18:54;;;;;;;0.52;0.50;;;26.40;41.20;;;;;;4911896;28;46774;-61
2022/07/08 08:21:19;;;;;;;1.50;0.60;;;26.50;41.30;;;;;;4912643;28;45232;-58
2022/07/08 08:23:45;;;;;;;1.20;0.50;;;26.50;41.30;;;;;;4914293;28;45311;-60
2022/07/08 08:26:10;;;;;;;0.80;0.50;;;26.50;41.30;;;;;;4912898;28;45652;-59
2022/07/08 08:28:36;;;;;;;0.75;0.50;;;26.50;41.20;;;;;;4911845;28;45950;-62
2022/07/08 08:31:01;;;;;;;1.10;0.40;;;26.50;41.20;;;;;;4915128;28;45324;-62
2022/07/08 08:33:27;;;;;;;0.98;0.57;;;26.50;41.20;;;;;;4914024;28;45559;-68
2022/07/08 08:35:53;;;;;;;1.25;0.50;;;26.60;41.10;;;;;;4909416;28;45280;-63
2022/07/08 08:38:18;;;;;;;1.88;0.70;;;26.60;41.10;;;;;;4915755;28;46029;-62
2022/07/08 08:40:44;;;;;;;0.63;0.50;;;26.60;41.10;;;;;;4912136;28;45236;-61
2022/07/08 08:43:09;;;;;;;1.38;0.50;;;26.60;41.00;;;;;;4870886;28;45547;-63
2022/07/08 08:45:35;;;;;;;0.98;0.50;;;26.60;41.00;;;;;;4906054;28;44802;-62
2022/07/08 08:48:05;;;;;;;1.30;0.60;;;26.60;41.00;;;;;;4896775;28;46036;-60
2022/07/08 08:53:15;;;;;;;2.28;0.57;;;26.70;41.10;;;;;;4919497;28;45276;-55
2022/07/08 08:55:41;;;;;;;3.10;0.60;;;26.70;41.00;;;;;;4883975;28;45446;-58
2022/07/08 08:58:06;;;;;;;1.52;0.60;;;26.70;40.90;;;;;;4912318;28;45561;-59
2022/07/08 09:00:33;;;;;;;0.60;0.40;;;26.80;40.90;;;;;;4914817;28;45461;-61
2022/07/08 09:02:59;;;;;;;3.33;0.52;;;26.70;40.90;;;;;;4911669;28;45621;-59
2022/07/08 09:05:25;;;;;;;0.95;0.57;;;26.80;40.90;;;;;;4916654;28;45008;-59
2022/07/08 09:07:51;;;;;;;0.75;0.50;;;26.80;40.90;;;;;;4917394;28;45292;-57
2022/07/08 09:10:17;;;;;;;1.67;0.80;;;26.90;40.90;;;;;;4906683;28;45019;-57
2022/07/08 09:13:03;;;;;;;1.10;0.40;;;26.90;40.80;;;;;;4911838;28;45895;-59
2022/07/08 09:15:36;;;;;;;1.25;0.50;;;26.90;40.70;;;;;;4894976;28;45485;-57
2022/07/08 09:18:03;;;;;;;;;;;26.90;40.90;;;;;;4912552;28;45917;-59
2022/07/08 09:20:43;;;;;;;2.05;0.70;;;26.90;40.80;;;;;;4917158;28;45731;-56
2022/07/08 09:23:29;;;;;;;0.60;0.50;;;26.90;40.80;;;;;;4911092;28;44864;-58
2022/07/08 09:25:55;;;;;;;1.48;0.65;;;26.90;40.80;;;;;;4912763;28;45485;-59
2022/07/08 09:28:33;;;;;;;1.48;0.60;;;26.90;40.80;;;;;;4915454;28;47076;-55
2022/07/08 09:31:00;;;;;;;0.73;0.57;;;26.90;40.70;;;;;;4916218;28;45304;-58
2022/07/08 09:33:25;;;;;;;1.05;0.50;;;27.00;40.80;;;;;;4900904;28;45347;-59
2022/07/08 09:35:51;;;;;;;1.15;0.70;;;27.00;40.80;;;;;;4918609;28;45600;-59
2022/07/08 09:38:20;;;;;;;0.77;0.50;;;27.00;40.80;;;;;;4918177;28;46083;-58
2022/07/08 09:41:02;;;;;;;0.75;0.65;;;27.00;40.70;;;;;;4918315;28;45425;-58
2022/07/08 09:43:28;;;;;;;0.75;0.50;;;27.00;40.70;;;;;;4914718;28;45292;-58
2022/07/08 09:45:53;;;;;;;0.63;0.45;;;27.00;40.70;;;;;;4920061;28;44973;-60
2022/07/08 09:48:19;;;;;;;1.42;0.55;;;27.00;40.70;;;;;;4915768;28;46874;-57
2022/07/08 09:50:48;;;;;;;1.13;0.50;;;27.10;40.70;;;;;;4915811;28;44705;-58
2022/07/08 09:53:24;;;;;;;0.75;0.50;;;27.10;40.70;;;;;;4914814;28;44720;-57
2022/07/08 09:55:54;;;;;;;1.05;0.50;;;27.10;40.60;;;;;;4899314;28;45338;-60
2022/07/08 09:58:21;;;;;;;1.33;0.50;;;27.10;40.60;;;;;;4904422;28;45813;-57
2022/07/08 10:00:48;;;;;;;0.73;0.50;;;27.20;40.60;;;;;;4916388;28;45252;-57
2022/07/08 10:03:13;;;;;;;0.88;0.52;;;27.20;40.60;;;;;;4917672;28;45463;-57
2022/07/08 10:05:40;;;;;;;0.73;0.40;;;27.20;40.60;;;;;;4905229;28;45501;-57
2022/07/08 10:08:07;;;;;;;0.93;0.50;;;27.20;40.60;;;;;;4915964;28;46386;-61
2022/07/08 10:10:33;;;;;;;3.33;0.98;;;27.20;40.60;;;;;;4916193;28;45258;-62
2022/07/08 10:12:59;;;;;;;0.52;0.45;;;27.20;40.60;;;;;;4916463;28;45073;-62
2022/07/08 10:15:25;;;;;;;1.40;0.70;;;27.20;40.60;;;;;;4911903;28;45836;-61
2022/07/08 10:17:50;;;;;;;0.60;0.50;;;27.20;40.50;;;;;;4881278;28;47332;-62
2022/07/08 10:20:17;;;;;;;0.75;0.63;;;27.30;40.50;;;;;;4920621;28;44855;-60
2022/07/08 10:22:44;;;;;;;0.55;0.47;;;27.20;40.40;;;;;;4901635;28;45708;-59
2022/07/08 10:25:10;;;;;;;0.95;0.43;;;27.30;40.50;;;;;;4923162;28;44837;-60
2022/07/08 10:27:36;;;;;;;1.88;0.70;;;27.30;40.50;;;;;;4916284;28;46090;-60
2022/07/08 10:30:23;;;;;;;1.35;0.63;;;27.30;40.40;;;;;;4898310;28;44716;-62
2022/07/08 10:32:48;;;;;;;2.70;0.50;;;27.30;40.40;;;;;;4917108;28;44985;-62
2022/07/08 10:35:21;;;;;;;1.17;0.60;;;27.30;40.40;;;;;;4922454;28;45408;-61
2022/07/08 10:37:56;;;;;;;1.60;0.60;;;27.30;40.30;;;;;;4921792;28;45386;-60
2022/07/08 10:40:41;;;;;;;1.27;0.68;;;27.30;40.30;;;;;;4908211;28;45411;-61
2022/07/08 10:43:18;;;;;;;0.65;0.50;;;27.40;40.20;;;;;;4918405;28;45504;-61
2022/07/08 10:46:03;;;;;;;1.92;0.60;;;27.30;40.30;;;;;;4918966;28;45237;-61
2022/07/08 10:48:46;;;;;;;1.02;0.70;;;27.30;40.10;;;;;;4898472;28;45196;-60
2022/07/08 10:51:29;;;;;;;2.67;0.50;;;27.30;40.70;;;;;;4918528;28;45379;-59
2022/07/08 10:54:01;;;;;;;3.17;0.60;;;27.40;40.30;;;;;;4908507;28;45675;-61
2022/07/08 10:56:48;;;;;;;1.15;0.60;;;27.30;40.20;;;;;;4915107;28;45230;-63
2022/07/08 10:59:25;;;;;;;1.10;0.45;;;27.40;40.10;;;;;;4919813;28;46048;-57
2022/07/08 11:01:51;;;;;;;1.02;0.60;;;27.40;40.30;;;;;;4906081;28;45421;-57
2022/07/08 11:04:33;;;;;;;1.38;0.70;;;27.30;40.20;;;;;;4892571;28;45172;-59
2022/07/08 11:07:25;;;;;;;0.52;0.45;;;27.40;40.10;;;;;;4913781;28;45185;-56
2022/07/08 11:09:57;;;;;;;1.42;0.80;;;27.40;40.10;;;;;;4900953;28;45227;-59
2022/07/08 11:12:25;;;;;;;0.70;0.47;;;27.40;40.10;;;;;;4898706;29;45326;-56
2022/07/08 11:14:51;;;;;;;1.00;0.68;;;27.40;40.20;;;;;;4897684;28;45377;-60
2022/07/08 11:17:24;;;;;;;1.50;0.70;;;27.40;40.20;;;;;;4900347;28;45487;-55
2022/07/08 11:19:51;;;;;;;1.20;0.68;;;27.40;40.20;;;;;;4896415;28;45242;-60
2022/07/08 11:22:17;;;;;;;3.70;0.75;;;27.40;40.20;;;;;;4895876;29;45105;-61
2022/07/08 11:24:43;;;;;;;0.77;0.40;;;27.40;40.20;;;;;;4895888;29;44685;-60
2022/07/08 11:27:09;;;;;;;1.00;0.45;;;27.50;40.20;;;;;;4899547;29;44925;-59
2022/07/08 11:29:35;;;;;;;1.30;0.40;;;27.50;40.20;;;;;;4894726;29;45954;-59
2022/07/08 11:32:02;;;;;;;0.85;0.50;;;27.50;40.20;;;;;;4900228;28;45060;-60
2022/07/08 11:34:28;;;;;;;2.47;0.60;;;27.50;40.20;;;;;;4896019;28;45185;-57
2022/07/08 11:36:57;;;;;;;1.40;0.60;;;27.50;40.20;;;;;;4898099;28;45903;-57
2022/07/08 11:39:23;;;;;;;1.10;0.50;;;27.50;40.20;;;;;;4897889;28;46330;-58
2022/07/08 11:41:48;;;;;;;1.67;0.57;;;27.50;40.20;;;;;;4895217;28;46709;-59
2022/07/08 11:44:18;;;;;;;0.82;0.63;;;27.50;40.10;;;;;;4901435;29;45475;-59
2022/07/08 11:46:45;;;;;;;1.42;0.57;;;27.50;40.10;;;;;;4895156;29;45263;-56
2022/07/08 11:49:11;;;;;;;1.40;0.60;;;27.50;40.10;;;;;;4897096;28;45992;-57
2022/07/08 11:51:37;;;;;;;1.30;0.50;;;27.50;40.10;;;;;;4895001;29;45796;-56
2022/07/08 11:54:02;;;;;;;1.15;0.50;;;27.50;40.10;;;;;;4894351;28;45666;-58
2022/07/08 11:56:30;;;;;;;0.80;0.68;;;27.50;40.10;;;;;;4901768;29;45518;-59
2022/07/08 11:58:56;;;;;;;0.75;0.50;;;27.60;40.10;;;;;;4900504;28;46040;-58
2022/07/08 12:01:22;;;;;;;1.50;0.40;;;27.60;40.10;;;;;;4887578;28;44958;-59
2022/07/08 12:03:48;;;;;;;0.93;0.43;;;27.60;40.00;;;;;;4880512;29;45507;-61
2022/07/08 12:06:22;;;;;;;1.95;0.50;;;27.60;40.00;;;;;;4895318;29;46154;-60
2022/07/08 12:08:48;;;;;;;0.77;0.70;;;27.60;40.00;;;;;;4879732;29;46282;-59
2022/07/08 12:11:14;;;;;;;1.42;0.52;;;27.60;40.00;;;;;;4886792;28;45211;-63
2022/07/08 12:13:42;;;;;;;1.45;0.55;;;27.70;40.10;;;;;;4882153;29;45347;-59
2022/07/08 12:16:07;;;;;;;1.45;0.70;;;27.70;40.00;;;;;;4879304;29;45570;-59
2022/07/08 12:18:35;;;;;;;1.08;0.60;;;27.70;40.00;;;;;;4879793;29;45704;-57
2022/07/08 12:21:16;;;;;;;0.95;0.60;;;27.70;40.00;;;;;;4877702;29;45137;-60
2022/07/08 12:23:45;;;;;;;1.02;0.60;;;27.70;39.90;;;;;;4880812;29;45225;-57
2022/07/08 12:26:12;;;;;;;0.80;0.40;;;27.70;40.00;;;;;;4894428;29;45352;-59
2022/07/08 12:28:38;;;;;;;1.02;0.50;;;27.70;40.00;;;;;;4876000;29;47111;-58
2022/07/08 12:31:03;;;;;;;0.57;0.50;;;27.70;40.00;;;;;;4895868;29;45269;-59
2022/07/08 12:33:31;;;;;;;1.17;0.60;;;27.70;40.00;;;;;;4878726;29;45520;-58
2022/07/08 12:35:57;;;;;;;3.10;0.95;;;27.80;40.00;;;;;;4878528;29;45309;-58
2022/07/08 12:38:23;;;;;;;1.70;0.60;;;27.80;40.00;;;;;;4877723;29;46015;-58
2022/07/08 12:40:49;;;;;;;1.10;0.57;;;27.80;40.00;;;;;;4879426;29;44749;-59
2022/07/08 12:43:15;;;;;;;1.73;0.77;;;27.80;40.00;;;;;;4879754;29;45401;-60
2022/07/08 12:45:40;;;;;;;0.75;0.55;;;27.80;39.90;;;;;;4881430;29;45363;-61
2022/07/08 12:48:06;;;;;;;0.73;0.50;;;27.80;40.00;;;;;;4892653;29;45727;-61
2022/07/08 12:50:32;;;;;;;0.73;0.40;;;27.80;40.00;;;;;;4879093;29;45365;-58
2022/07/08 12:52:58;;;;;;;1.33;0.70;;;27.80;40.00;;;;;;4878611;29;45541;-58
2022/07/08 12:55:23;;;;;;;0.55;0.40;;;27.90;40.00;;;;;;4876890;29;46550;-60
2022/07/08 12:57:49;;;;;;;0.82;0.50;;;27.90;40.00;;;;;;4882070;29;46184;-58
2022/07/08 13:00:14;;;;;;;1.73;0.60;;;27.90;40.00;;;;;;4881408;29;45382;-59
2022/07/08 13:02:42;;;;;;;0.73;0.60;;;27.90;40.50;;;;;;4892230;29;45504;-58
2022/07/08 13:05:08;;;;;;;0.43;0.43;;;27.90;40.00;;;;;;4895720;29;45300;-60
2022/07/08 13:07:34;;;;;;;0.93;0.60;;;27.90;40.00;;;;;;4895508;28;45674;-58
2022/07/08 13:09:59;;;;;;;1.00;0.50;;;27.90;40.00;;;;;;4900997;29;44664;-59
2022/07/08 13:12:25;;;;;;;0.70;0.50;;;27.90;40.00;;;;;;4898589;29;45424;-61
2022/07/08 13:14:51;;;;;;;1.85;0.68;;;27.90;40.00;;;;;;4906857;28;46358;-58
2022/07/08 13:17:17;;;;;;;0.50;0.50;;;27.90;40.00;;;;;;4898457;29;44951;-58
2022/07/08 13:19:42;;;;;;;1.58;0.43;;;27.90;39.90;;;;;;4900131;28;45118;-59
2022/07/08 13:22:08;;;;;;;1.67;0.60;;;27.90;40.10;;;;;;4901940;28;45227;-59
2022/07/08 13:24:34;;;;;;;0.80;0.43;;;27.90;39.90;;;;;;4905396;29;45125;-59
2022/07/08 13:27:00;;;;;;;0.90;0.52;;;28.00;40.00;;;;;;4904234;28;46110;-58
2022/07/08 13:29:26;;;;;;;1.20;0.50;;;27.90;39.90;;;;;;4897427;28;44692;-60
2022/07/08 13:31:51;;;;;;;0.85;0.50;;;27.90;39.90;;;;;;4901721;28;45285;-58
2022/07/08 13:34:20;;;;;;;1.67;0.60;;;27.90;40.00;;;;;;4899289;28;45328;-60
2022/07/08 13:36:45;;;;;;;0.93;0.70;;;27.90;40.00;;;;;;4900494;29;45998;-60
2022/07/08 13:39:11;;;;;;;3.13;0.60;;;28.00;40.00;;;;;;4879367;29;45363;-59
2022/07/08 13:41:37;;;;;;;0.55;0.50;;;28.00;40.00;;;;;;4899999;28;45181;-59
2022/07/08 13:44:02;;;;;;;1.70;0.50;;;28.00;40.00;;;;;;4900671;29;45425;-60
2022/07/08 13:46:28;;;;;;;0.93;0.50;;;28.00;40.00;;;;;;4899937;28;46151;-59
2022/07/08 13:48:54;;;;;;;2.13;0.80;;;28.00;40.00;;;;;;4900400;29;44697;-58
2022/07/08 13:51:20;;;;;;;2.85;0.70;;;28.00;40.00;;;;;;4899432;28;46160;-57
2022/07/08 13:53:45;;;;;;;1.30;0.70;;;28.00;40.00;;;;;;4899332;29;45212;-59
2022/07/08 13:56:11;;;;;;;0.77;0.60;;;28.00;40.00;;;;;;4899564;28;45861;-58
2022/07/08 13:58:36;;;;;;;1.02;0.60;;;28.00;40.00;;;;;;4900106;29;45209;-60
2022/07/08 14:01:05;;;;;;;0.50;0.40;;;28.10;40.00;;;;;;4916778;28;45426;-59
2022/07/08 14:03:30;;;;;;;0.82;0.47;;;28.10;40.00;;;;;;4916507;28;45225;-58
2022/07/08 14:05:56;;;;;;;0.50;0.47;;;28.10;40.00;;;;;;4914157;28;45189;-54
2022/07/08 14:08:21;;;;;;;0.63;0.50;;;28.10;40.00;;;;;;4918022;28;45200;-59
2022/07/08 14:10:47;;;;;;;0.60;0.52;;;28.10;40.00;;;;;;4921029;28;45322;-60
2022/07/08 14:13:13;;;;;;;1.08;0.38;;;28.10;40.00;;;;;;4922158;28;44693;-57
2022/07/08 14:15:38;;;;;;;0.38;0.35;;;28.10;40.00;;;;;;4920715;28;46395;-59
2022/07/08 14:18:04;;;;;;;1.20;0.50;;;28.10;40.00;;;;;;4915918;28;45263;-60
2022/07/08 14:20:29;;;;;;;0.77;0.57;;;28.20;40.00;;;;;;4920741;28;45288;-61
2022/07/08 14:22:56;;;;;;;1.35;0.55;;;28.20;40.10;;;;;;4921616;28;45273;-61
2022/07/08 14:25:22;;;;;;;1.63;0.57;;;28.20;40.10;;;;;;4911385;28;45905;-59
2022/07/08 14:27:49;;;;;;;0.50;0.45;;;28.20;40.70;;;;;;4904677;28;45238;-61
2022/07/08 14:30:14;;;;;;;1.02;0.40;;;28.20;40.00;;;;;;4901482;28;45285;-59
2022/07/08 14:32:40;;;;;;;1.00;0.40;;;28.10;40.00;;;;;;4918034;28;44677;-61
2022/07/08 14:35:06;;;;;;;0.85;0.60;;;28.20;40.10;;;;;;4917330;28;46934;-59
2022/07/08 14:37:31;;;;;;;1.67;0.60;;;28.20;40.00;;;;;;4920094;28;45040;-59
2022/07/08 14:39:57;;;;;;;0.57;0.40;;;28.20;40.00;;;;;;4912766;28;45434;-61
2022/07/08 14:42:22;;;;;;;0.93;0.50;;;28.20;40.10;;;;;;4920479;28;45590;-58
2022/07/08 14:44:48;;;;;;;1.48;0.52;;;28.20;40.10;;;;;;4918779;28;46498;-60
2022/07/08 14:47:13;;;;;;;1.10;0.70;;;28.20;40.00;;;;;;4918765;28;45117;-58
2022/07/08 14:49:39;;;;;;;0.47;0.35;;;28.20;40.00;;;;;;4917781;28;45430;-59
2022/07/08 14:52:05;;;;;;;0.57;0.43;;;28.20;40.10;;;;;;4917479;28;45296;-58
2022/07/08 14:54:31;;;;;;;3.10;0.65;;;28.20;40.00;;;;;;4915150;28;45925;-59
2022/07/08 14:56:56;;;;;;;1.83;0.47;;;28.20;40.00;;;;;;4918543;28;44706;-61
2022/07/08 14:59:22;;;;;;;1.25;0.50;;;28.30;40.10;;;;;;4904128;28;45300;-57
2022/07/08 15:01:47;;;;;;;1.52;0.60;;;28.30;40.10;;;;;;4897666;28;45296;-60
2022/07/08 15:04:13;;;;;;;1.15;0.50;;;28.30;40.00;;;;;;4894342;28;46397;-64
2022/07/08 15:06:39;;;;;;;0.70;0.38;;;28.30;40.10;;;;;;4894201;29;45269;-61
2022/07/08 15:09:04;;;;;;;1.45;0.52;;;28.30;40.00;;;;;;4896410;29;45218;-62
2022/07/08 15:11:30;;;;;;;0.50;0.50;;;28.30;40.00;;;;;;4891539;28;45624;-59
2022/07/08 15:13:56;;;;;;;0.80;0.57;;;28.30;40.00;;;;;;4898504;29;46078;-63
2022/07/08 15:16:21;;;;;;;3.08;0.82;;;28.30;40.00;;;;;;4894182;28;45612;-57
2022/07/08 15:18:47;;;;;;;1.00;0.40;;;28.40;40.10;;;;;;4879603;29;45376;-58
2022/07/08 15:21:12;;;;;;;1.23;0.70;;;28.40;40.10;;;;;;4893628;28;44911;-60
2022/07/08 15:23:38;;;;;;;0.40;0.35;;;28.40;40.00;;;;;;4895557;28;46096;-60
2022/07/08 15:26:04;;;;;;;0.80;0.60;;;28.40;40.00;;;;;;4895631;29;45247;-57
2022/07/08 15:28:30;;;;;;;0.95;0.68;;;28.40;40.10;;;;;;4898610;28;45614;-61
2022/07/08 15:30:56;;;;;;;0.90;0.50;;;28.40;40.00;;;;;;4899966;28;45230;-59
2022/07/08 15:33:22;;;;;;;0.60;0.40;;;28.40;40.00;;;;;;4898162;28;45866;-61
2022/07/08 15:35:48;;;;;;;0.70;0.50;;;28.40;40.00;;;;;;4895893;28;45177;-64
2022/07/08 15:38:13;;;;;;;1.20;0.60;;;28.40;40.10;;;;;;4891724;29;45272;-60
2022/07/08 15:40:39;;;;;;;1.23;0.88;;;28.40;40.10;;;;;;4893409;28;46026;-62
2022/07/08 15:43:04;;;;;;;1.38;0.50;;;28.40;40.10;;;;;;4893095;28;46865;-63
2022/07/08 15:45:30;;;;;;;0.75;0.35;;;28.40;40.10;;;;;;4911981;28;45613;-59
2022/07/08 15:47:56;;;;;;;0.73;0.52;;;28.40;40.20;;;;;;4891501;29;45259;-62
2022/07/08 15:50:21;;;;;;;2.22;0.60;;;28.40;40.20;;;;;;4900162;28;45654;-59